Wellington, CO

8:38 AM MDT on August 20, 2014 (GMT -0600)
WSFR | Change Station
CLOSE
Current Station
Personal Weather Station
Location: Wellington, CO
Elevation: 5410 ft
Nearby Weather Stations

Elev 5410 ft 40.77 °N, 105.02 °W | Updated 18 hours ago

Partly Cloudy
Partly Cloudy
72 °F
Feels Like 72 °F
N
8
Wind Variable Wind from WNW
Gusts 9 mph

Today
High -- | Low -- °F
--% Chance of Precip.
Yesterday
High -- | Low -- °F
Precip. -- in
6:15 AM 7:50 PM
Waning Crescent, 21% visible
Pressure 29.93 in
Visibility 10.0 miles
Clouds Clear
Dew Point 52 °F
Humidity 48%
Rainfall 0.00 in
Snow Depth Not available.
UV 2 out of 12
Pollen 10.00 out of 12
Ozone Good
PM2.5 Good
Flu Activity Not available.
METAR KFNL 201415Z AUTO 14003KT 10SM CLR 21/12 A2993 RMK AO1

More Conditions Fewer Conditions

Pressure 29.93 in
Visibility 10.0 miles
Clouds Clear
Dew Point 52 °F
Humidity 48%
Rainfall 0.00 in
Snow Depth Not available.
UV 2 out of 12
Pollen 10.00 out of 12
Ozone Good
PM2.5 Good
Flu Activity Not available.
METAR KFNL 201415Z AUTO 14003KT 10SM CLR 21/12 A2993 RMK AO1

More Conditions Fewer Conditions

10-Day Weather Forecast

Almanac

Astronomy

Aug. 20, 2014 Rise Set
Actual Time 6:15 AM MDT 7:50 PM MDT
Civil Twilight 5:46 AM MDT 8:19 PM MDT
Nautical Twilight 5:11 AM MDT 8:54 PM MDT
Astronomical Twilight 4:33 AM MDT 9:31 PM MDT
Moon 1:56 AM MDT 4:38 PM MDT
Length of Visible Light 14h 33m
Length of Day
13h 35m
Tomorrow will be 2m 29s shorter.
Waning Crescent, 21% of the Moon is Illuminated
Today
Waning Crescent
Aug 25
New
Sep 2
First Quarter
Sep 8
Full
Sep 15
Last Quarter

Today's Extremes

State Highs State Lows

Community

WunderPhotos

Upload Photos

1,745,654 photos uploaded!

Nearby

Air Quality

  Air Quality AQ Index Pollutant
Yesterday Moderate
OZONE
Yesterday Good
PM2.5
Current Good
PM2.5
Current Good
OZONE
Wednesday Good
PM2.5
Wednesday Good
OZONE

Snow Depth

Station Depth Elevation
Willow Park 0 in 10700 ft
Joe Wright 0 in 10120 ft
Lake Irene 3 in 10700 ft
Copeland Lake 0 in 8600 ft
Wild Basin 0 in 9560 ft

Earthquake Activity

City Distance Mag. Time & Date
No recent earthquake activity has been reported nearby.
Minimum magnitude displayed is 2.5.

Coastal Water Temperatures

Place Temperature
No Stations Reporting

Nearby Weather Stations